Time;durP1;ratioP1;P1;durP2;ratioP2;P2;SDS_P1;SDS_P2;PMS_P1;PMS_P2;Temp;Humidity;BMP_temperature;BMP_pressure;BME280_temperature;BME280_humidity;BME280_pressure;Samples;Min_cycle;Max_cycle;Signal;HPM_P1;HPM_P2
2022/07/09 00:01:02;;;;;;;2.30;2.10;;;10.80;99.90;;;;;;6169580;23;20471;-87
2022/07/09 00:03:30;;;;;;;3.92;3.17;;;10.80;99.90;;;;;;6192946;23;20027;-86
2022/07/09 00:05:58;;;;;;;4.82;2.40;;;10.60;99.90;;;;;;6202518;23;20466;-87
2022/07/09 00:08:26;;;;;;;7.32;3.13;;;10.50;99.90;;;;;;6193901;23;20463;-87
2022/07/09 00:10:54;;;;;;;3.08;2.17;;;10.40;99.90;;;;;;6168255;23;20069;-87
2022/07/09 00:13:22;;;;;;;8.32;2.88;;;10.30;99.90;;;;;;6218763;23;20340;-87
2022/07/09 00:15:52;;;;;;;5.05;2.20;;;10.40;99.90;;;;;;6168306;23;20028;-87
2022/07/09 00:18:20;;;;;;;3.25;1.98;;;10.40;99.90;;;;;;6168471;23;20017;-87
2022/07/09 00:20:48;;;;;;;2.35;2.08;;;10.40;99.90;;;;;;6204375;23;20068;-89
2022/07/09 00:23:16;;;;;;;2.53;2.33;;;10.30;99.90;;;;;;6192781;23;20020;-87
2022/07/09 00:25:44;;;;;;;2.25;2.15;;;10.40;99.90;;;;;;6168901;23;20328;-86
2022/07/09 00:28:12;;;;;;;2.50;2.33;;;10.50;99.90;;;;;;6216157;23;20024;-87
2022/07/09 00:30:40;;;;;;;10.10;2.13;;;10.40;99.90;;;;;;6192754;23;20455;-87
2022/07/09 00:33:08;;;;;;;2.50;1.85;;;10.40;99.90;;;;;;6193500;23;20020;-87
2022/07/09 00:35:36;;;;;;;5.20;2.67;;;10.40;99.90;;;;;;6193112;23;20017;-87
2022/07/09 00:38:04;;;;;;;4.13;3.83;;;10.50;99.90;;;;;;6168359;23;20020;-87
2022/07/09 00:40:34;;;;;;;2.25;2.05;;;10.40;99.90;;;;;;6193284;23;20020;-87
2022/07/09 00:43:02;;;;;;;7.93;2.58;;;10.40;99.90;;;;;;6248315;22;20016;-88
2022/07/09 00:45:33;;;;;;;7.53;2.47;;;10.40;99.90;;;;;;6203522;23;20015;-86
2022/07/09 00:48:01;;;;;;;6.22;3.70;;;10.50;99.90;;;;;;6193244;23;20024;-86
2022/07/09 00:50:29;;;;;;;3.25;2.25;;;10.70;99.90;;;;;;6201832;23;20012;-86
2022/07/09 00:52:57;;;;;;;3.88;2.95;;;10.80;99.90;;;;;;6231207;23;20015;-87
2022/07/09 00:55:26;;;;;;;5.20;2.25;;;10.90;99.90;;;;;;6195264;23;20786;-87
2022/07/09 00:57:55;;;;;;;3.22;2.60;;;11.00;99.90;;;;;;6219863;23;20020;-87
2022/07/09 01:00:23;;;;;;;7.35;2.88;;;11.00;99.90;;;;;;6170830;23;20669;-87
2022/07/09 01:02:51;;;;;;;4.53;3.53;;;11.00;99.90;;;;;;6251909;23;20344;-87
2022/07/09 01:05:19;;;;;;;5.07;2.35;;;11.00;99.90;;;;;;6220246;23;20016;-87
2022/07/09 01:07:47;;;;;;;4.25;1.98;;;11.00;99.90;;;;;;6194074;23;20024;-87
2022/07/09 01:10:15;;;;;;;5.03;2.08;;;10.80;99.90;;;;;;6252589;23;20024;-87
2022/07/09 01:12:45;;;;;;;2.35;2.25;;;10.70;99.90;;;;;;6170793;23;20016;-88
2022/07/09 01:15:13;;;;;;;3.00;2.80;;;10.60;99.90;;;;;;6219089;23;20024;-86
2022/07/09 01:17:41;;;;;;;2.15;1.90;;;10.40;99.90;;;;;;6195398;23;20016;-87
2022/07/09 01:20:09;;;;;;;3.47;2.83;;;10.40;99.90;;;;;;6219776;23;20024;-87
2022/07/09 01:22:37;;;;;;;4.55;2.80;;;10.40;99.90;;;;;;6194091;23;20016;-87
2022/07/09 01:25:09;;;;;;;2.58;2.13;;;10.50;99.90;;;;;;6194585;23;20012;-86
2022/07/09 01:27:37;;;;;;;11.25;2.92;;;10.50;99.90;;;;;;6194444;23;20450;-87
2022/07/09 01:30:05;;;;;;;1.98;1.88;;;10.50;99.90;;;;;;6169629;22;20023;-87
2022/07/09 01:32:33;;;;;;;2.28;2.15;;;10.50;99.90;;;;;;6170431;23;20016;-88
2022/07/09 01:35:01;;;;;;;15.15;2.55;;;10.60;99.90;;;;;;6194569;23;20016;-87
2022/07/09 01:37:29;;;;;;;2.55;2.35;;;10.60;99.90;;;;;;6205461;23;20012;-88
2022/07/09 01:39:57;;;;;;;2.50;2.10;;;10.60;99.90;;;;;;6195714;23;20031;-88
2022/07/09 01:42:25;;;;;;;3.03;2.30;;;10.70;99.90;;;;;;6219254;23;20008;-87
2022/07/09 01:44:53;;;;;;;7.53;2.20;;;10.70;99.90;;;;;;6170407;23;20016;-87
2022/07/09 01:47:21;;;;;;;4.40;1.90;;;10.80;99.90;;;;;;6219082;23;20031;-87
2022/07/09 01:49:49;;;;;;;2.35;2.17;;;10.80;99.90;;;;;;6193904;23;20020;-87
2022/07/09 01:52:17;;;;;;;4.50;2.35;;;10.90;99.90;;;;;;6194914;23;20012;-87
2022/07/09 01:54:45;;;;;;;1.75;1.65;;;10.90;99.90;;;;;;6225047;23;20016;-88
2022/07/09 01:57:13;;;;;;;5.45;2.80;;;11.00;99.90;;;;;;6170237;23;20027;-87
2022/07/09 01:59:41;;;;;;;2.20;2.00;;;11.10;99.90;;;;;;6196281;23;20039;-87
2022/07/09 02:02:09;;;;;;;5.40;2.17;;;11.10;99.90;;;;;;6203112;22;20494;-87
2022/07/09 02:04:37;;;;;;;2.72;2.20;;;11.10;99.90;;;;;;6195167;23;20019;-88
2022/07/09 02:07:05;;;;;;;2.83;2.20;;;11.10;99.90;;;;;;6169640;23;20024;-87
2022/07/09 02:09:33;;;;;;;3.60;2.60;;;11.10;99.90;;;;;;6194330;23;20024;-87
2022/07/09 02:12:01;;;;;;;3.85;2.45;;;11.10;99.90;;;;;;6194315;23;20027;-87
2022/07/09 02:14:29;;;;;;;2.80;2.55;;;11.10;99.90;;;;;;6194286;23;20020;-87
2022/07/09 02:20:29;;;;;;;2.75;2.20;;;11.20;99.90;;;;;;6232921;22;20024;-86
2022/07/09 02:22:57;;;;;;;5.55;2.30;;;11.20;99.90;;;;;;6218889;23;20024;-86
2022/07/09 02:25:25;;;;;;;4.20;2.95;;;11.20;99.90;;;;;;6194286;23;20027;-85
2022/07/09 02:27:53;;;;;;;2.17;1.98;;;11.20;99.90;;;;;;6169405;23;20719;-86
2022/07/09 02:30:21;;;;;;;6.32;3.08;;;11.10;99.90;;;;;;6218616;23;20016;-86
2022/07/09 02:32:49;;;;;;;5.38;3.53;;;11.10;99.90;;;;;;6255572;23;20008;-86
2022/07/09 02:35:17;;;;;;;3.83;2.70;;;11.20;99.90;;;;;;6193877;23;20024;-86
2022/07/09 02:37:45;;;;;;;2.53;1.92;;;11.20;99.90;;;;;;6169738;23;20434;-86
2022/07/09 02:40:14;;;;;;;3.15;2.38;;;11.30;99.90;;;;;;6193107;23;20024;-86
2022/07/09 02:42:42;;;;;;;5.32;2.10;;;11.30;99.90;;;;;;6180435;23;20028;-86
2022/07/09 02:45:10;;;;;;;6.20;2.00;;;11.30;99.90;;;;;;6218565;23;20027;-85
2022/07/09 02:47:38;;;;;;;2.45;2.22;;;11.30;99.90;;;;;;6243393;23;20024;-86
2022/07/09 02:50:07;;;;;;;3.10;2.80;;;11.30;99.90;;;;;;6168619;23;20729;-86
2022/07/09 02:52:35;;;;;;;2.70;2.33;;;11.30;99.90;;;;;;6229538;23;20012;-87
2022/07/09 02:55:03;;;;;;;5.30;2.95;;;11.20;99.90;;;;;;6193490;23;20456;-86
2022/07/09 02:57:31;;;;;;;2.85;2.38;;;11.20;99.90;;;;;;6169645;23;20023;-86
2022/07/09 02:59:59;;;;;;;3.83;1.95;;;11.20;99.90;;;;;;6167490;23;20024;-86
2022/07/09 03:02:27;;;;;;;6.45;2.70;;;11.20;99.90;;;;;;6226137;23;20024;-86
2022/07/09 03:04:55;;;;;;;3.85;3.55;;;11.20;99.90;;;;;;6193193;23;20012;-85
2022/07/09 03:07:23;;;;;;;2.08;1.95;;;11.30;99.90;;;;;;6217570;23;20029;-86
2022/07/09 03:09:51;;;;;;;3.65;3.03;;;11.30;99.90;;;;;;6228441;23;20309;-85
2022/07/09 03:12:19;;;;;;;3.55;2.28;;;11.30;99.90;;;;;;6169669;23;20324;-86
2022/07/09 03:14:47;;;;;;;11.70;4.53;;;11.30;99.90;;;;;;6199396;23;20027;-86
2022/07/09 03:17:15;;;;;;;2.90;1.90;;;11.30;99.90;;;;;;6169394;23;20016;-86
2022/07/09 03:19:43;;;;;;;2.53;2.33;;;11.30;99.90;;;;;;6217935;23;20028;-86
2022/07/09 03:22:12;;;;;;;2.33;2.08;;;11.40;99.90;;;;;;6193474;23;20016;-86
2022/07/09 03:24:42;;;;;;;2.33;2.22;;;11.40;99.90;;;;;;6191404;23;20016;-78
2022/07/09 03:27:10;;;;;;;2.88;2.67;;;11.40;99.90;;;;;;6247368;23;20352;-78
2022/07/09 03:29:38;;;;;;;3.05;2.72;;;11.40;99.90;;;;;;6255437;23;20015;-87
2022/07/09 03:32:06;;;;;;;2.50;2.30;;;11.30;99.90;;;;;;6193309;23;20024;-86
2022/07/09 03:34:37;;;;;;;2.63;2.45;;;11.30;99.90;;;;;;6217956;23;20020;-88
2022/07/09 03:37:05;;;;;;;3.65;3.35;;;11.30;99.90;;;;;;6218365;23;20012;-87
2022/07/09 03:39:34;;;;;;;3.38;3.03;;;11.30;99.90;;;;;;6168273;23;20020;-88
2022/07/09 03:42:02;;;;;;;5.53;2.50;;;11.30;99.90;;;;;;6227050;23;20015;-87
2022/07/09 03:44:30;;;;;;;3.17;2.95;;;11.30;99.90;;;;;;6169042;23;20478;-87
2022/07/09 03:46:58;;;;;;;2.92;2.33;;;11.30;99.90;;;;;;6193227;23;20023;-88
2022/07/09 03:49:27;;;;;;;4.13;3.15;;;11.30;99.90;;;;;;6169320;23;20016;-86
2022/07/09 03:51:55;;;;;;;2.97;2.72;;;11.30;99.90;;;;;;6192664;23;20023;-86
2022/07/09 03:54:43;;;;;;;12.55;4.82;;;11.40;99.90;;;;;;6193118;23;20016;-85
2022/07/09 03:57:13;;;;;;;2.43;2.20;;;11.40;99.90;;;;;;6217716;23;20027;-85
2022/07/09 03:59:42;;;;;;;2.63;2.08;;;11.50;99.90;;;;;;6218323;23;20456;-85
2022/07/09 04:02:11;;;;;;;2.85;2.50;;;11.40;99.90;;;;;;6242807;23;20443;-85
2022/07/09 04:04:41;;;;;;;6.32;3.05;;;11.40;99.90;;;;;;6169075;23;20336;-85
2022/07/09 04:07:09;;;;;;;2.80;2.60;;;11.40;99.90;;;;;;6192873;23;20024;-86
2022/07/09 04:09:37;;;;;;;2.90;2.40;;;11.50;99.90;;;;;;6168908;23;20016;-85
2022/07/09 04:12:06;;;;;;;3.85;2.72;;;11.50;99.90;;;;;;6192567;23;20020;-85
2022/07/09 04:14:34;;;;;;;3.03;2.80;;;11.60;99.90;;;;;;6191710;23;20031;-85
2022/07/09 04:17:02;;;;;;;3.60;3.05;;;11.60;99.90;;;;;;6191560;23;20451;-85
2022/07/09 04:19:34;;;;;;;2.95;2.45;;;11.70;99.90;;;;;;6166122;23;20474;-86
2022/07/09 04:22:02;;;;;;;3.08;2.88;;;11.70;99.90;;;;;;6166300;23;20016;-85
2022/07/09 04:24:30;;;;;;;2.53;2.33;;;11.60;99.90;;;;;;6192847;23;20031;-85
2022/07/09 04:26:58;;;;;;;2.90;2.65;;;11.70;99.90;;;;;;6170220;23;20035;-86
2022/07/09 04:29:26;;;;;;;2.83;2.63;;;11.70;99.90;;;;;;6220772;23;20027;-86
2022/07/09 04:31:54;;;;;;;2.53;2.42;;;11.80;99.90;;;;;;6170665;23;20027;-85
2022/07/09 04:34:22;;;;;;;4.28;3.13;;;11.80;99.90;;;;;;6195226;23;20470;-85
2022/07/09 04:36:50;;;;;;;2.80;2.60;;;11.80;99.90;;;;;;6195383;23;20020;-85
2022/07/09 04:39:18;;;;;;;4.15;2.95;;;11.90;99.90;;;;;;6170055;23;20435;-86
2022/07/09 04:41:46;;;;;;;6.68;3.47;;;11.90;99.90;;;;;;6194260;23;20510;-85
2022/07/09 04:44:15;;;;;;;3.00;2.70;;;11.90;99.90;;;;;;6194949;23;20012;-85
2022/07/09 04:46:44;;;;;;;4.97;2.78;;;11.90;99.90;;;;;;6251160;23;20024;-85
2022/07/09 04:49:12;;;;;;;4.20;2.78;;;11.90;99.90;;;;;;6195307;23;20020;-86
2022/07/09 04:51:40;;;;;;;2.03;1.92;;;12.00;99.90;;;;;;6196811;23;20031;-85
2022/07/09 04:54:08;;;;;;;4.07;3.10;;;12.10;99.90;;;;;;6228729;23;20020;-85
2022/07/09 04:56:36;;;;;;;3.60;2.13;;;12.20;99.90;;;;;;6194715;23;20016;-85
2022/07/09 04:59:04;;;;;;;3.40;2.47;;;12.30;99.90;;;;;;6194362;23;20039;-85
2022/07/09 05:01:32;;;;;;;2.92;2.47;;;12.30;99.90;;;;;;6230557;23;20023;-85
2022/07/09 05:04:00;;;;;;;3.53;2.83;;;12.40;99.90;;;;;;6169836;23;20024;-85
2022/07/09 05:06:28;;;;;;;3.83;3.47;;;12.40;99.90;;;;;;6201974;23;20024;-85
2022/07/09 05:08:56;;;;;;;3.92;3.67;;;12.40;99.90;;;;;;6194996;23;20027;-85
2022/07/09 05:11:25;;;;;;;2.53;2.20;;;12.50;99.90;;;;;;6194308;23;20027;-85
2022/07/09 05:14:00;;;;;;;6.25;2.97;;;12.50;99.90;;;;;;6193822;23;20031;-85
2022/07/09 05:16:28;;;;;;;3.67;3.35;;;12.50;99.90;;;;;;6220131;23;20367;-86
2022/07/09 05:18:56;;;;;;;4.88;2.50;;;12.50;99.90;;;;;;6169340;23;20344;-85
2022/07/09 05:21:25;;;;;;;3.00;2.63;;;12.50;99.90;;;;;;6219922;23;20019;-85
2022/07/09 05:23:55;;;;;;;9.27;4.15;;;12.60;99.90;;;;;;6219187;23;20024;-86
2022/07/09 05:26:23;;;;;;;5.20;4.80;;;12.60;99.90;;;;;;6226968;23;20023;-85
2022/07/09 05:28:52;;;;;;;17.40;3.67;;;12.70;99.90;;;;;;6170526;23;20016;-85
2022/07/09 05:31:20;;;;;;;3.45;3.25;;;12.70;99.90;;;;;;6249846;23;20028;-86
2022/07/09 05:34:02;;;;;;;4.03;3.28;;;12.80;99.90;;;;;;6253724;23;20016;-85
2022/07/09 05:36:30;;;;;;;5.25;2.95;;;12.90;99.90;;;;;;6194320;23;20016;-86
2022/07/09 05:39:01;;;;;;;5.57;4.25;;;12.90;99.90;;;;;;6195116;23;20031;-86
2022/07/09 05:41:29;;;;;;;2.85;2.53;;;13.00;99.90;;;;;;6230261;23;20436;-86
2022/07/09 05:43:57;;;;;;;3.53;3.22;;;13.00;99.90;;;;;;6220633;23;20020;-85
2022/07/09 05:46:25;;;;;;;6.18;2.53;;;13.10;99.90;;;;;;6251535;23;20024;-85
2022/07/09 05:48:53;;;;;;;4.55;3.25;;;13.10;99.90;;;;;;6195089;23;20016;-86
2022/07/09 05:51:21;;;;;;;5.60;3.63;;;13.20;99.90;;;;;;6218867;23;20024;-85
2022/07/09 05:53:50;;;;;;;2.88;2.60;;;13.30;99.90;;;;;;6218577;23;20031;-86
2022/07/09 05:56:18;;;;;;;6.18;3.30;;;13.40;99.90;;;;;;6229784;23;20536;-86
2022/07/09 05:58:51;;;;;;;2.75;2.55;;;13.40;99.90;;;;;;6194581;23;20024;-85
2022/07/09 06:01:20;;;;;;;5.25;3.17;;;13.50;99.90;;;;;;6194198;23;20019;-85
2022/07/09 06:03:53;;;;;;;6.55;4.05;;;13.60;99.90;;;;;;6218972;23;20024;-85
2022/07/09 06:06:22;;;;;;;2.60;2.40;;;13.60;99.90;;;;;;6169492;23;20032;-85
2022/07/09 06:08:50;;;;;;;3.15;2.55;;;13.70;99.90;;;;;;6219898;23;20016;-85
2022/07/09 06:11:18;;;;;;;7.38;2.92;;;13.80;99.90;;;;;;6193709;23;20024;-85
2022/07/09 06:13:53;;;;;;;4.93;2.83;;;13.90;99.90;;;;;;6169437;23;20452;-85
2022/07/09 06:16:21;;;;;;;3.63;2.25;;;14.00;99.90;;;;;;6170266;23;20332;-85
2022/07/09 06:18:49;;;;;;;11.45;2.55;;;14.20;99.90;;;;;;6224624;23;20020;-85
2022/07/09 06:21:17;;;;;;;6.88;3.75;;;14.20;99.90;;;;;;6219741;23;20012;-85
2022/07/09 06:23:45;;;;;;;4.00;3.67;;;14.30;99.90;;;;;;6247748;23;20016;-86
2022/07/09 06:26:15;;;;;;;5.60;4.05;;;14.40;99.90;;;;;;6212941;23;20435;-86
2022/07/09 06:28:43;;;;;;;4.55;2.55;;;14.40;99.90;;;;;;6194245;23;20023;-86
2022/07/09 06:31:14;;;;;;;8.85;3.22;;;14.50;99.90;;;;;;6193628;23;20032;-87
2022/07/09 06:33:42;;;;;;;28.10;5.20;;;14.60;99.90;;;;;;6244523;23;20045;-87
2022/07/09 06:36:11;;;;;;;8.60;3.55;;;14.60;99.90;;;;;;6193056;23;20024;-87
2022/07/09 06:41:29;;;;;;;3.72;1.70;;;14.80;99.90;;;;;;6256405;23;20504;-86
2022/07/09 06:44:04;;;;;;;1.83;1.73;;;14.90;99.90;;;;;;6244912;23;20463;-87
2022/07/09 06:46:35;;;;;;;4.65;2.53;;;15.00;99.90;;;;;;6218443;23;20023;-86
2022/07/09 06:49:03;;;;;;;1.52;1.40;;;15.00;99.90;;;;;;6229376;23;20012;-88
2022/07/09 06:51:32;;;;;;;2.28;2.15;;;15.00;99.90;;;;;;6193877;23;20028;-85
2022/07/09 06:54:00;;;;;;;1.55;1.45;;;15.00;99.90;;;;;;6176373;23;20019;-87
2022/07/09 06:56:34;;;;;;;8.30;2.13;;;15.00;99.90;;;;;;6207885;23;20463;-86
2022/07/09 06:59:02;;;;;;;5.68;1.98;;;15.00;99.90;;;;;;6217967;23;20028;-87
2022/07/09 07:01:30;;;;;;;4.00;2.10;;;15.00;99.90;;;;;;6256220;23;20020;-87
2022/07/09 07:04:00;;;;;;;2.10;1.60;;;15.00;99.90;;;;;;6218493;23;20031;-87
2022/07/09 07:06:31;;;;;;;1.88;1.77;;;15.00;99.90;;;;;;6217884;23;20027;-86
2022/07/09 07:08:59;;;;;;;5.22;3.30;;;15.00;99.90;;;;;;6193922;23;20027;-86
2022/07/09 07:11:27;;;;;;;9.45;3.00;;;15.00;99.90;;;;;;6218128;23;20035;-86
2022/07/09 07:13:59;;;;;;;2.95;1.33;;;15.00;99.90;;;;;;6253027;23;20432;-86
2022/07/09 07:16:29;;;;;;;1.80;1.70;;;15.00;99.90;;;;;;6194174;23;20016;-87
2022/07/09 07:19:03;;;;;;;2.38;1.58;;;15.00;99.90;;;;;;6192744;23;20024;-85
2022/07/09 07:21:38;;;;;;;3.92;2.33;;;15.00;99.90;;;;;;6254624;23;20012;-87
2022/07/09 07:24:17;;;;;;;8.13;2.40;;;15.00;99.90;;;;;;6245209;23;20020;-87
2022/07/09 07:27:06;;;;;;;4.00;1.50;;;15.00;99.90;;;;;;6193943;23;20027;-85
2022/07/09 07:29:37;;;;;;;3.35;1.60;;;15.10;99.90;;;;;;6170672;23;20325;-85
2022/07/09 07:32:06;;;;;;;6.47;4.85;;;15.10;99.90;;;;;;6192997;23;20463;-86
2022/07/09 07:34:39;;;;;;;3.72;2.17;;;15.10;99.90;;;;;;6251422;23;20027;-85
2022/07/09 07:37:07;;;;;;;2.60;1.75;;;15.10;99.90;;;;;;6193924;23;20328;-87
2022/07/09 07:39:35;;;;;;;1.88;1.75;;;15.20;99.90;;;;;;6195398;23;20543;-86
2022/07/09 07:42:05;;;;;;;3.53;1.52;;;15.20;99.90;;;;;;6216706;23;20016;-86
2022/07/09 07:44:44;;;;;;;3.85;2.05;;;15.20;99.90;;;;;;6229201;23;20676;-87
2022/07/09 07:47:14;;;;;;;4.50;2.20;;;15.20;99.90;;;;;;6213074;23;20023;-86
2022/07/09 07:49:42;;;;;;;1.65;1.55;;;15.30;99.90;;;;;;6228163;23;20258;-86
2022/07/09 07:52:10;;;;;;;1.52;1.42;;;15.30;99.90;;;;;;6243485;23;20023;-86
2022/07/09 07:54:38;;;;;;;5.25;1.98;;;15.30;99.90;;;;;;6224520;23;20028;-85
2022/07/09 07:57:07;;;;;;;2.60;1.40;;;15.40;99.90;;;;;;6218754;23;20016;-85
2022/07/09 07:59:35;;;;;;;4.40;2.60;;;15.40;99.90;;;;;;6217753;23;20020;-86
2022/07/09 08:02:03;;;;;;;3.15;1.52;;;15.50;99.90;;;;;;6193229;22;20016;-85
2022/07/09 08:04:31;;;;;;;1.63;1.52;;;15.50;99.90;;;;;;6218622;23;20016;-87
2022/07/09 08:07:01;;;;;;;1.92;1.80;;;15.50;99.90;;;;;;6192976;23;20035;-85
2022/07/09 08:09:32;;;;;;;2.25;2.15;;;15.50;99.90;;;;;;6193861;23;20779;-86
2022/07/09 08:12:01;;;;;;;6.78;2.28;;;15.60;99.90;;;;;;6194366;23;20028;-86
2022/07/09 08:14:30;;;;;;;14.65;4.40;;;15.60;99.90;;;;;;6218040;23;20012;-87
2022/07/09 08:16:58;;;;;;;3.38;2.03;;;15.60;99.90;;;;;;6204041;23;20035;-87
2022/07/09 08:19:26;;;;;;;5.53;1.77;;;15.60;99.90;;;;;;6247762;22;20028;-86
2022/07/09 08:22:03;;;;;;;4.15;1.77;;;15.60;99.90;;;;;;6218032;23;20024;-86
2022/07/09 08:24:34;;;;;;;2.15;1.95;;;15.70;99.90;;;;;;6255398;23;20293;-86
2022/07/09 08:27:02;;;;;;;2.30;1.73;;;15.70;99.90;;;;;;6167898;23;20036;-86
2022/07/09 08:29:32;;;;;;;6.78;3.20;;;15.80;99.90;;;;;;6169473;23;20028;-86
2022/07/09 08:32:05;;;;;;;2.58;1.77;;;15.80;99.90;;;;;;6193542;23;20016;-84
2022/07/09 08:34:35;;;;;;;3.67;2.17;;;15.90;99.90;;;;;;6203572;23;20023;-86
2022/07/09 08:37:06;;;;;;;1.85;1.75;;;16.00;99.90;;;;;;6169117;23;20432;-85
2022/07/09 08:39:35;;;;;;;5.13;2.33;;;16.00;99.90;;;;;;6167816;23;20351;-86
2022/07/09 08:42:09;;;;;;;2.50;2.28;;;16.20;99.90;;;;;;6190535;22;20053;-86
2022/07/09 08:44:46;;;;;;;3.33;1.73;;;16.20;99.90;;;;;;6170209;23;20020;-86
2022/07/09 08:47:17;;;;;;;2.83;1.30;;;16.30;99.90;;;;;;6193091;23;20343;-86
2022/07/09 08:49:49;;;;;;;3.60;1.77;;;16.30;99.90;;;;;;6193563;23;20016;-86
2022/07/09 08:52:20;;;;;;;6.18;1.83;;;16.40;99.90;;;;;;6193077;23;20463;-86
2022/07/09 08:54:53;;;;;;;9.07;2.17;;;16.50;99.90;;;;;;6199908;23;20471;-86
2022/07/09 08:57:28;;;;;;;2.00;1.45;;;16.60;99.90;;;;;;6194564;23;20024;-86
2022/07/09 09:00:03;;;;;;;;;;;16.70;99.90;;;;;;6168425;23;20324;-85
2022/07/09 09:02:37;;;;;;;6.35;2.20;;;16.90;99.90;;;;;;6193837;23;20600;-85
2022/07/09 09:05:08;;;;;;;5.85;4.22;;;16.90;99.90;;;;;;6168939;23;20025;-86
2022/07/09 09:07:36;;;;;;;5.75;1.58;;;16.80;99.90;;;;;;6168084;23;20444;-86
2022/07/09 09:10:08;;;;;;;2.45;1.55;;;16.80;99.90;;;;;;6217251;23;20016;-86
2022/07/09 09:12:48;;;;;;;2.03;1.70;;;16.80;99.90;;;;;;6172374;23;20012;-85
2022/07/09 09:15:19;;;;;;;4.28;1.70;;;17.10;99.90;;;;;;6169290;23;20024;-85
2022/07/09 09:17:49;;;;;;;1.70;1.60;;;17.50;99.90;;;;;;6205346;23;20012;-84
2022/07/09 09:20:21;;;;;;;3.05;2.38;;;17.70;99.90;;;;;;6169608;23;20024;-84
2022/07/09 09:23:03;;;;;;;2.10;1.90;;;17.80;99.90;;;;;;6170985;23;20024;-85
2022/07/09 09:25:31;;;;;;;4.28;2.28;;;18.00;99.90;;;;;;6194953;23;20024;-84
2022/07/09 09:28:01;;;;;;;4.80;2.17;;;18.20;99.90;;;;;;6204437;23;20024;-84
2022/07/09 09:30:30;;;;;;;5.97;1.85;;;18.30;99.90;;;;;;6169563;23;20487;-85
2022/07/09 09:33:22;;;;;;;1.55;1.45;;;18.40;99.90;;;;;;6257150;23;20336;-86
2022/07/09 09:35:53;;;;;;;3.97;1.80;;;18.30;99.90;;;;;;6193956;23;20047;-85
2022/07/09 09:38:29;;;;;;;2.15;1.10;;;18.10;99.90;;;;;;6193852;23;20016;-86
2022/07/09 09:40:57;;;;;;;3.40;2.33;;;18.30;99.90;;;;;;6205201;23;20008;-86
2022/07/09 09:43:30;;;;;;;1.92;1.80;;;18.50;99.90;;;;;;6134455;23;20017;-83
2022/07/09 09:46:02;;;;;;;3.55;1.95;;;18.70;99.90;;;;;;6162582;23;20031;-86
2022/07/09 09:48:52;;;;;;;1.70;1.60;;;18.70;99.90;;;;;;6176441;23;20056;-86
2022/07/09 09:51:28;;;;;;;6.30;2.80;;;18.60;99.90;;;;;;6138558;23;20113;-86
2022/07/09 09:54:03;;;;;;;1.77;1.50;;;18.70;99.90;;;;;;6182966;23;20321;-84
2022/07/09 09:56:34;;;;;;;4.15;2.42;;;18.90;99.90;;;;;;6163097;23;20016;-85
2022/07/09 09:59:02;;;;;;;1.45;1.35;;;19.00;99.90;;;;;;6162349;23;20024;-86
2022/07/09 10:01:43;;;;;;;;;;;;;;;;;;;;;
2022/07/09 10:04:19;;;;;;;1.23;1.17;;;19.30;99.90;;;;;;6185388;23;20441;-86
2022/07/09 10:06:47;;;;;;;1.00;1.00;;;19.10;99.90;;;;;;6137498;23;20028;-85
2022/07/09 10:09:15;;;;;;;2.25;1.83;;;19.10;99.90;;;;;;6212203;23;20478;-84
2022/07/09 10:11:48;;;;;;;4.47;1.77;;;19.20;99.90;;;;;;6247284;23;20016;-85
2022/07/09 10:14:23;;;;;;;2.33;1.20;;;19.00;99.90;;;;;;6218632;23;20021;-86
2022/07/09 10:16:54;;;;;;;2.20;1.10;;;19.00;99.90;;;;;;6219496;23;20013;-85
2022/07/09 10:19:34;;;;;;;2.72;1.45;;;19.00;99.90;;;;;;6193304;23;20024;-86
2022/07/09 10:22:02;;;;;;;3.05;2.13;;;19.30;99.90;;;;;;6202701;22;20039;-84
2022/07/09 10:24:32;;;;;;;1.85;1.50;;;19.10;99.90;;;;;;6194600;23;20012;-85
2022/07/09 10:27:08;;;;;;;2.10;1.92;;;18.80;99.90;;;;;;6169366;23;20020;-86
2022/07/09 10:29:59;;;;;;;2.15;1.48;;;18.70;99.90;;;;;;6170043;23;20027;-85
2022/07/09 10:32:29;;;;;;;1.33;1.23;;;18.70;99.90;;;;;;6121350;23;20348;-86
2022/07/09 10:35:04;;;;;;;2.63;1.23;;;19.00;99.90;;;;;;6168207;23;20024;-85
2022/07/09 10:37:47;;;;;;;1.92;1.42;;;19.10;99.90;;;;;;6194098;23;20300;-86
2022/07/09 10:40:17;;;;;;;2.25;1.65;;;19.30;99.90;;;;;;6217880;23;20020;-85
2022/07/09 10:42:59;;;;;;;2.72;2.28;;;19.20;99.90;;;;;;6225377;23;20027;-85
2022/07/09 10:45:36;;;;;;;1.48;1.15;;;19.20;99.90;;;;;;6194544;23;20012;-84
2022/07/09 10:48:06;;;;;;;1.23;1.10;;;19.30;99.90;;;;;;6218364;23;20343;-85
2022/07/09 10:50:48;;;;;;;5.28;2.20;;;19.30;99.90;;;;;;6195595;23;20451;-85
2022/07/09 10:53:29;;;;;;;3.13;2.88;;;19.30;99.90;;;;;;6196002;23;20344;-88
2022/07/09 10:55:58;;;;;;;3.05;2.05;;;19.40;99.90;;;;;;6193078;23;20024;-84
2022/07/09 10:58:26;;;;;;;1.33;1.23;;;19.20;99.90;;;;;;6242903;23;20031;-86
2022/07/09 11:01:00;;;;;;;2.70;1.30;;;19.00;99.90;;;;;;6195200;23;20020;-84
2022/07/09 11:03:30;;;;;;;1.52;1.30;;;19.00;99.90;;;;;;6193584;23;20456;-85
2022/07/09 11:05:58;;;;;;;1.20;1.20;;;19.30;99.90;;;;;;6193549;23;20336;-86
2022/07/09 11:08:26;;;;;;;6.57;2.45;;;19.70;99.90;;;;;;6204178;23;20012;-85
2022/07/09 11:10:55;;;;;;;2.13;1.00;;;20.00;99.90;;;;;;6223133;23;20016;-86
2022/07/09 11:13:28;;;;;;;1.77;1.67;;;20.20;99.90;;;;;;6169602;23;20339;-85
2022/07/09 11:16:03;;;;;;;4.05;2.08;;;20.20;99.90;;;;;;6193405;23;20024;-85
2022/07/09 11:18:33;;;;;;;1.67;0.98;;;20.00;99.90;;;;;;6200261;23;20024;-85
2022/07/09 11:21:02;;;;;;;6.00;1.80;;;19.80;99.90;;;;;;6192711;23;20352;-85
2022/07/09 11:23:31;;;;;;;2.28;1.45;;;19.70;99.90;;;;;;6192811;23;20027;-85
2022/07/09 11:26:05;;;;;;;1.70;1.42;;;19.70;99.90;;;;;;6153316;22;20031;-85
2022/07/09 11:28:39;;;;;;;3.95;1.40;;;19.70;99.90;;;;;;6169758;23;20045;-85
2022/07/09 11:31:10;;;;;;;1.90;1.40;;;19.80;99.90;;;;;;6181614;23;20027;-85
2022/07/09 11:36:45;;;;;;;3.03;2.55;;;20.10;99.90;;;;;;6192861;23;20024;-85
2022/07/09 11:39:27;;;;;;;4.57;1.33;;;20.10;99.90;;;;;;6222476;23;20395;-85
2022/07/09 11:41:57;;;;;;;4.97;1.67;;;20.10;99.90;;;;;;6192951;22;20467;-84
2022/07/09 11:45:30;;;;;;;2.25;2.13;;;20.00;99.90;;;;;;6208646;23;20474;-86
2022/07/09 11:48:08;;;;;;;3.20;1.27;;;19.70;99.90;;;;;;6193246;23;20028;-87
2022/07/09 11:50:46;;;;;;;1.65;1.55;;;19.60;99.90;;;;;;6168515;23;20024;-85
2022/07/09 11:53:25;;;;;;;1.65;1.27;;;19.50;99.90;;;;;;6170093;23;20012;-86
2022/07/09 11:56:06;;;;;;;2.33;2.15;;;19.70;99.90;;;;;;6106353;23;20025;-85
2022/07/09 11:58:34;;;;;;;;;;;19.70;99.90;;;;;;6132390;23;20357;-86
2022/07/09 12:01:11;;;;;;;1.40;1.30;;;19.70;99.90;;;;;;6163369;23;19920;-87
2022/07/09 12:03:50;;;;;;;3.80;1.95;;;19.90;99.90;;;;;;6131820;23;20480;-86
2022/07/09 12:06:21;;;;;;;3.75;1.20;;;20.10;99.90;;;;;;6108380;23;20029;-86
2022/07/09 12:09:02;;;;;;;5.25;1.92;;;20.10;99.90;;;;;;6132103;23;20017;-84
2022/07/09 12:11:37;;;;;;;5.60;1.70;;;20.00;99.90;;;;;;6131483;23;20361;-85
2022/07/09 12:14:11;;;;;;;2.90;1.30;;;19.90;99.90;;;;;;6131218;23;20369;-84
2022/07/09 12:17:00;;;;;;;3.03;1.92;;;20.20;99.90;;;;;;6167755;23;20056;-86
2022/07/09 12:19:34;;;;;;;1.73;1.63;;;20.10;99.90;;;;;;6131501;23;20400;-87
2022/07/09 12:22:04;;;;;;;1.50;1.40;;;19.90;99.90;;;;;;6108395;23;20180;-85
2022/07/09 12:24:59;;;;;;;3.15;1.38;;;20.00;99.90;;;;;;6133284;23;20345;-87
2022/07/09 12:27:30;;;;;;;1.60;1.50;;;20.20;99.90;;;;;;6128814;23;20033;-87
2022/07/09 12:30:40;;;;;;;2.10;1.90;;;20.60;99.90;;;;;;6156582;23;20021;-84
2022/07/09 12:33:09;;;;;;;2.08;1.65;;;20.70;99.90;;;;;;6132743;23;20029;-85
2022/07/09 12:38:47;;;;;;;4.30;1.92;;;20.80;99.90;;;;;;6137490;23;20032;-84
2022/07/09 12:41:37;;;;;;;2.35;1.67;;;20.80;99.90;;;;;;6166797;23;20017;-85
2022/07/09 12:44:32;;;;;;;1.60;1.30;;;20.70;99.90;;;;;;6108317;23;20021;-86
2022/07/09 12:47:06;;;;;;;2.70;2.40;;;20.70;99.90;;;;;;6133736;23;20492;-85
2022/07/09 12:49:34;;;;;;;2.65;2.20;;;20.70;99.90;;;;;;6134359;23;20017;-86
2022/07/09 12:52:03;;;;;;;1.15;1.13;;;20.70;99.90;;;;;;6134325;23;20025;-85
2022/07/09 12:54:33;;;;;;;;;;;20.60;99.90;;;;;;6110877;23;20025;-85
2022/07/09 12:57:02;;;;;;;7.85;1.98;;;20.60;99.90;;;;;;6169549;23;19956;-87
2022/07/09 12:59:36;;;;;;;2.53;1.75;;;20.50;99.90;;;;;;6121927;23;20033;-85
2022/07/09 13:02:05;;;;;;;1.83;1.27;;;20.40;99.90;;;;;;6132764;23;20346;-85
2022/07/09 13:04:34;;;;;;;1.10;1.10;;;20.30;99.90;;;;;;6158804;23;20020;-85
2022/07/09 13:07:03;;;;;;;2.60;1.38;;;20.40;99.90;;;;;;6119172;23;20045;-84
2022/07/09 13:09:31;;;;;;;2.25;1.33;;;20.40;99.90;;;;;;6168672;23;20437;-86
2022/07/09 13:11:59;;;;;;;1.75;1.65;;;20.60;99.90;;;;;;6159447;23;20017;-84
2022/07/09 13:14:27;;;;;;;3.60;1.25;;;20.70;99.90;;;;;;6158160;23;20021;-85
2022/07/09 13:16:55;;;;;;;1.63;1.42;;;20.80;99.90;;;;;;6194064;23;20017;-86
2022/07/09 13:19:43;;;;;;;2.00;1.65;;;20.90;99.90;;;;;;6184102;23;20133;-85